createdAt,value
2022-12-25T00:02:05.115Z,2.01
2022-12-25T00:04:33.626Z,1.95
2022-12-25T00:07:01.959Z,1.89
2022-12-25T00:09:30.535Z,1.83
2022-12-25T00:11:58.746Z,1.73
2022-12-25T00:14:27.197Z,1.71
2022-12-25T00:16:55.606Z,1.65
2022-12-25T00:19:24.067Z,1.60
2022-12-25T00:21:52.451Z,1.56
2022-12-25T00:24:20.950Z,1.53
2022-12-25T00:26:49.306Z,1.48
2022-12-25T00:29:17.687Z,1.41
2022-12-25T00:31:46.270Z,1.36
2022-12-25T00:34:14.624Z,1.31
2022-12-25T00:36:42.913Z,1.27
2022-12-25T00:39:11.513Z,1.21
2022-12-25T00:41:58.532Z,1.16
2022-12-25T00:44:28.362Z,1.13
2022-12-25T00:46:58.254Z,1.11
2022-12-25T00:49:25.397Z,1.07
2022-12-25T00:51:55.595Z,1.02
2022-12-25T00:54:24.973Z,1.00
2022-12-25T00:56:54.814Z,0.96
2022-12-25T00:59:25.032Z,0.93
2022-12-25T01:01:54.699Z,0.88
2022-12-25T01:04:24.774Z,0.80
2022-12-25T01:06:54.469Z,0.77
2022-12-25T01:09:42.866Z,0.74
2022-12-25T01:12:18.178Z,0.71
2022-12-25T01:14:47.198Z,0.65
2022-12-25T01:17:16.822Z,0.59
2022-12-25T01:19:46.579Z,0.58
2022-12-25T01:22:16.408Z,0.57
2022-12-25T01:24:45.130Z,0.53
2022-12-25T01:27:15.827Z,0.50
2022-12-25T01:29:47.260Z,0.49
2022-12-25T01:32:17.386Z,0.47
2022-12-25T01:34:52.100Z,0.44
2022-12-25T01:37:26.015Z,0.38
2022-12-25T01:39:56.049Z,0.36
2022-12-25T01:42:26.246Z,0.33
2022-12-25T01:45:42.145Z,0.32
2022-12-25T01:48:32.732Z,0.31
2022-12-25T01:51:28.757Z,0.29
2022-12-25T01:54:09.504Z,0.25
2022-12-25T01:56:45.469Z,0.23
2022-12-25T01:59:23.706Z,0.18
2022-12-25T02:01:54.389Z,0.15
2022-12-25T02:04:40.367Z,0.12
2022-12-25T02:07:24.715Z,0.08
2022-12-25T02:09:54.852Z,0.08
2022-12-25T02:12:32.906Z,0.04
2022-12-25T02:15:21.069Z,0.01
2022-12-25T02:18:21.097Z,-0.05
2022-12-25T02:21:28.475Z,-0.10
2022-12-25T02:24:50.156Z,-0.12
2022-12-25T02:27:33.660Z,-0.12
2022-12-25T02:30:11.473Z,-0.15
2022-12-25T02:33:22.170Z,-0.20
2022-12-25T02:35:59.663Z,-0.25
2022-12-25T02:39:04.309Z,-0.31
2022-12-25T02:41:40.898Z,-0.37
2022-12-25T02:44:41.673Z,-0.38
2022-12-25T02:47:30.617Z,-0.42
2022-12-25T02:50:23.155Z,-0.45
2022-12-25T02:53:19.889Z,-0.50
2022-12-25T02:56:11.866Z,-0.49
2022-12-25T02:59:06.394Z,-0.46
2022-12-25T03:01:58.261Z,-0.50
2022-12-25T03:04:51.616Z,-0.53
2022-12-25T03:07:27.488Z,-0.54
2022-12-25T03:10:28.978Z,-0.57
2022-12-25T03:13:22.322Z,-0.58
2022-12-25T03:16:09.867Z,-0.60
2022-12-25T03:18:38.206Z,-0.64
2022-12-25T03:21:25.195Z,-0.65
2022-12-25T03:24:20.504Z,-0.64
2022-12-25T03:26:56.241Z,-0.67
2022-12-25T03:30:05.740Z,-0.71
2022-12-25T03:32:48.797Z,-0.71
2022-12-25T03:36:02.684Z,-0.72
2022-12-25T03:39:29.269Z,-0.73
2022-12-25T03:42:25.433Z,-0.77
2022-12-25T03:45:47.721Z,-0.83
2022-12-25T03:48:38.014Z,-0.87
2022-12-25T03:51:37.778Z,-0.89
2022-12-25T03:54:32.680Z,-0.89
2022-12-25T03:57:21.588Z,-0.94
2022-12-25T04:00:10.285Z,-0.96
2022-12-25T04:02:59.088Z,-0.97
2022-12-25T04:05:47.897Z,-0.99
2022-12-25T04:08:36.343Z,-1.06
2022-12-25T04:11:25.002Z,-1.10
2022-12-25T04:14:13.558Z,-1.13
2022-12-25T04:16:59.439Z,-1.14
2022-12-25T04:19:48.067Z,-1.16
2022-12-25T04:22:36.690Z,-1.20
2022-12-25T04:25:23.903Z,-1.22
2022-12-25T04:28:12.198Z,-1.23
2022-12-25T04:31:00.777Z,-1.23
2022-12-25T04:33:49.407Z,-1.26
2022-12-25T04:36:19.724Z,-1.26
2022-12-25T04:38:49.787Z,-1.27
2022-12-25T04:41:19.890Z,-1.28
2022-12-25T04:43:49.910Z,-1.29
2022-12-25T04:46:19.801Z,-1.30
2022-12-25T04:48:49.811Z,-1.32
2022-12-25T04:51:25.344Z,-1.33
2022-12-25T04:53:56.515Z,-1.33
2022-12-25T04:56:26.545Z,-1.35
2022-12-25T04:58:56.593Z,-1.34
2022-12-25T05:01:27.051Z,-1.37
2022-12-25T05:03:57.199Z,-1.38
2022-12-25T05:06:27.908Z,-1.39
2022-12-25T05:08:58.453Z,-1.39
2022-12-25T05:11:28.576Z,-1.39
2022-12-25T05:13:58.717Z,-1.39
2022-12-25T05:16:29.127Z,-1.40
2022-12-25T05:18:59.240Z,-1.40
2022-12-25T05:21:29.302Z,-1.39
2022-12-25T05:23:59.298Z,-1.40
2022-12-25T05:26:29.325Z,-1.42
2022-12-25T05:28:57.551Z,-1.44
2022-12-25T05:31:25.142Z,-1.44
2022-12-25T05:33:54.950Z,-1.44
2022-12-25T05:36:24.699Z,-1.44
2022-12-25T05:38:54.655Z,-1.43
2022-12-25T05:41:26.804Z,-1.40
2022-12-25T05:43:57.663Z,-1.39
2022-12-25T05:46:24.932Z,-1.39
2022-12-25T05:48:54.635Z,-1.39
2022-12-25T05:51:26.085Z,-1.39
2022-12-25T05:53:55.282Z,-1.40
2022-12-25T05:56:25.051Z,-1.40
2022-12-25T05:58:55.372Z,-1.42
2022-12-25T06:01:28.856Z,-1.44
2022-12-25T06:03:57.857Z,-1.42
2022-12-25T06:06:27.653Z,-1.42
2022-12-25T06:08:56.533Z,-1.43
2022-12-25T06:11:25.121Z,-1.40
2022-12-25T06:13:53.704Z,-1.38
2022-12-25T06:16:22.024Z,-1.37
2022-12-25T06:18:52.320Z,-1.35
2022-12-25T06:21:21.986Z,-1.34
2022-12-25T06:23:50.615Z,-1.30
2022-12-25T06:26:20.604Z,-1.30
2022-12-25T06:28:49.991Z,-1.32
2022-12-25T06:31:23.526Z,-1.29
2022-12-25T06:33:51.806Z,-1.29
2022-12-25T06:36:25.231Z,-1.25
2022-12-25T06:38:54.193Z,-1.21
2022-12-25T06:41:26.367Z,-1.15
2022-12-25T06:44:01.475Z,-1.03
2022-12-25T06:46:31.826Z,-0.97
2022-12-25T06:49:00.870Z,-0.67
2022-12-25T06:51:33.613Z,-0.73
2022-12-25T06:54:06.025Z,-0.79
2022-12-25T06:56:36.148Z,-0.84
2022-12-25T06:59:08.474Z,-0.83
2022-12-25T07:01:58.605Z,-0.86
2022-12-25T07:04:40.649Z,-0.88
2022-12-25T07:07:09.938Z,-0.89
2022-12-25T07:09:42.397Z,-0.90
2022-12-25T07:12:24.418Z,-0.90
2022-12-25T07:14:56.731Z,-0.91
2022-12-25T07:17:25.883Z,-0.91
2022-12-25T07:19:56.662Z,-0.90
2022-12-25T07:22:29.223Z,-0.95
2022-12-25T07:24:59.238Z,-0.96
2022-12-25T07:27:29.189Z,-0.97
2022-12-25T07:29:58.996Z,-0.98
2022-12-25T07:32:32.913Z,-1.00
2022-12-25T07:35:02.651Z,-0.98
2022-12-25T07:37:32.314Z,-0.98
2022-12-25T07:40:02.194Z,-0.98
2022-12-25T07:42:32.024Z,-0.97
2022-12-25T07:45:01.787Z,-0.90
2022-12-25T07:47:31.723Z,-0.84
2022-12-25T07:50:01.622Z,-0.77
2022-12-25T07:52:31.389Z,-0.72
2022-12-25T07:55:01.264Z,-0.65
2022-12-25T07:57:31.138Z,-0.58
2022-12-25T08:00:00.987Z,-0.51
2022-12-25T08:02:30.789Z,-0.45
2022-12-25T08:05:00.916Z,-0.37
2022-12-25T08:07:30.682Z,-0.28
2022-12-25T08:10:00.434Z,-0.25
2022-12-25T08:12:30.354Z,-0.20
2022-12-25T08:15:00.204Z,-0.14
2022-12-25T08:17:29.908Z,-0.09
2022-12-25T08:19:59.705Z,-0.05
2022-12-25T08:22:28.069Z,-0.01
2022-12-25T08:24:56.535Z,0.04
2022-12-25T08:27:24.963Z,0.11
2022-12-25T08:29:53.364Z,0.13
2022-12-25T08:32:21.849Z,0.19
2022-12-25T08:34:50.228Z,0.26
2022-12-25T08:37:18.687Z,0.34
2022-12-25T08:39:47.105Z,0.39
2022-12-25T08:42:19.728Z,0.44
2022-12-25T08:44:46.972Z,0.52
2022-12-25T08:47:15.430Z,0.59
2022-12-25T08:49:43.823Z,0.65
2022-12-25T08:52:12.326Z,0.70
2022-12-25T08:54:40.669Z,0.76
2022-12-25T08:57:09.885Z,0.84
2022-12-25T08:59:37.792Z,0.91
2022-12-25T09:02:06.714Z,0.97
2022-12-25T09:04:34.638Z,1.01
2022-12-25T09:07:03.142Z,1.11
2022-12-25T09:09:31.612Z,1.15
2022-12-25T09:11:59.985Z,1.26
2022-12-25T09:14:30.315Z,1.41
2022-12-25T09:17:00.335Z,1.42
2022-12-25T09:19:31.183Z,1.52
2022-12-25T09:22:01.381Z,1.30
2022-12-25T09:24:31.471Z,1.37
2022-12-25T09:26:59.803Z,1.34
2022-12-25T09:29:28.233Z,1.41
2022-12-25T09:31:56.655Z,1.39
2022-12-25T09:34:25.147Z,1.45
2022-12-25T09:36:54.826Z,1.47
2022-12-25T09:39:24.870Z,1.50
2022-12-25T09:42:13.000Z,1.17
2022-12-25T09:45:17.986Z,1.24
2022-12-25T09:47:54.409Z,1.36
2022-12-25T09:51:02.406Z,1.47
2022-12-25T09:53:50.482Z,1.62
2022-12-25T09:56:26.358Z,1.62
2022-12-25T09:58:55.675Z,1.60
2022-12-25T10:01:54.250Z,1.78
2022-12-25T10:04:55.830Z,1.82
2022-12-25T10:08:20.596Z,2.02
2022-12-25T10:11:36.854Z,2.02
2022-12-25T10:15:00.488Z,2.06
2022-12-25T10:18:16.179Z,2.06
2022-12-25T10:20:58.039Z,2.09
2022-12-25T10:23:55.065Z,2.16
2022-12-25T10:26:29.981Z,2.31
2022-12-25T10:29:19.639Z,2.52
2022-12-25T10:31:53.678Z,2.53
2022-12-25T10:34:23.961Z,2.58
2022-12-25T10:36:52.476Z,2.68
2022-12-25T10:39:25.739Z,2.60
2022-12-25T10:42:46.219Z,2.66
2022-12-25T10:45:16.768Z,2.74
2022-12-25T10:47:54.997Z,2.90
2022-12-25T10:50:29.738Z,2.95
2022-12-25T10:53:09.401Z,2.84
2022-12-25T10:55:40.137Z,2.78
2022-12-25T10:58:20.871Z,2.99
2022-12-25T11:01:06.146Z,2.80
2022-12-25T11:03:52.576Z,2.74
2022-12-25T11:06:29.322Z,2.59
2022-12-25T11:09:03.617Z,2.48
2022-12-25T11:11:33.395Z,2.55
2022-12-25T11:14:03.593Z,2.60
2022-12-25T11:16:40.821Z,2.65
2022-12-25T11:19:32.904Z,2.70
2022-12-25T11:22:05.260Z,2.89
2022-12-25T11:24:35.101Z,3.00
2022-12-25T11:27:09.461Z,2.95
2022-12-25T11:29:52.705Z,2.90
2022-12-25T11:32:37.964Z,3.03
2022-12-25T11:35:17.979Z,3.06
2022-12-25T11:37:54.655Z,3.17
2022-12-25T11:40:36.878Z,3.23
2022-12-25T11:43:27.465Z,3.46
2022-12-25T11:46:17.014Z,3.42
2022-12-25T11:49:04.137Z,3.49
2022-12-25T11:51:40.903Z,3.51
2022-12-25T11:54:36.493Z,3.58
2022-12-25T11:57:11.646Z,3.59
2022-12-25T11:59:51.886Z,3.57
2022-12-25T12:02:43.489Z,3.57
2022-12-25T12:05:42.274Z,3.63
2022-12-25T12:08:13.943Z,3.75
2022-12-25T12:11:39.023Z,4.00
2022-12-25T12:15:07.039Z,3.88
2022-12-25T12:17:37.060Z,3.86
2022-12-25T12:20:39.624Z,3.92
2022-12-25T12:23:17.449Z,4.14
2022-12-25T12:25:48.513Z,4.18
2022-12-25T12:28:45.980Z,4.23
2022-12-25T12:31:17.495Z,4.28
2022-12-25T12:33:59.836Z,4.36
2022-12-25T12:36:36.251Z,4.27
2022-12-25T12:39:06.993Z,4.32
2022-12-25T12:41:50.113Z,4.25
2022-12-25T12:44:31.198Z,4.19
2022-12-25T12:47:01.248Z,4.22
2022-12-25T12:49:33.721Z,4.49
2022-12-25T12:52:41.039Z,4.41
2022-12-25T12:55:16.933Z,4.32
2022-12-25T12:58:02.996Z,4.21
2022-12-25T13:01:12.342Z,4.25
2022-12-25T13:04:37.568Z,4.23
2022-12-25T13:08:12.025Z,4.17
2022-12-25T13:10:49.811Z,4.20
2022-12-25T13:13:37.520Z,4.28
2022-12-25T13:16:24.872Z,4.33
2022-12-25T13:18:57.510Z,4.38
2022-12-25T13:21:30.519Z,4.40
2022-12-25T13:24:20.004Z,4.41
2022-12-25T13:26:51.281Z,4.27
2022-12-25T13:29:40.171Z,4.31
2022-12-25T13:32:32.490Z,4.45
2022-12-25T13:35:02.911Z,4.37
2022-12-25T13:37:33.020Z,4.25
2022-12-25T13:40:18.700Z,4.41
2022-12-25T13:42:56.274Z,4.45
2022-12-25T13:45:31.342Z,4.38
2022-12-25T13:48:16.225Z,4.22
2022-12-25T13:50:58.350Z,4.16
2022-12-25T13:53:27.550Z,4.25
2022-12-25T13:55:59.523Z,4.20
2022-12-25T13:58:36.911Z,4.22
2022-12-25T14:01:05.580Z,4.18
2022-12-25T14:03:47.835Z,4.10
2022-12-25T14:06:31.016Z,4.09
2022-12-25T14:09:00.541Z,4.05
2022-12-25T14:11:32.580Z,4.01
2022-12-25T14:14:17.220Z,4.07
2022-12-25T14:16:50.173Z,4.13
2022-12-25T14:19:34.767Z,4.02
2022-12-25T14:22:23.805Z,3.99
2022-12-25T14:24:52.392Z,3.96
2022-12-25T14:27:28.088Z,4.11
2022-12-25T14:30:01.423Z,4.10
2022-12-25T14:32:44.569Z,4.10
2022-12-25T14:35:19.729Z,4.10
2022-12-25T14:38:00.577Z,4.06
2022-12-25T14:40:35.999Z,4.08
2022-12-25T14:43:26.788Z,4.04
2022-12-25T14:46:02.948Z,4.14
2022-12-25T14:48:33.950Z,4.09
2022-12-25T14:51:18.137Z,4.16
2022-12-25T14:54:02.610Z,4.21
2022-12-25T14:56:38.160Z,4.23
2022-12-25T14:59:26.128Z,4.18
2022-12-25T15:02:04.081Z,4.30
2022-12-25T15:04:31.576Z,4.42
2022-12-25T15:07:07.449Z,4.50
2022-12-25T15:09:37.829Z,4.37
2022-12-25T15:12:13.618Z,4.29
2022-12-25T15:14:43.611Z,4.21
2022-12-25T15:17:30.644Z,4.26
2022-12-25T15:20:04.089Z,4.32
2022-12-25T15:22:54.263Z,4.30
2022-12-25T15:25:23.747Z,4.21
2022-12-25T15:27:53.515Z,4.22
2022-12-25T15:30:23.991Z,4.21
2022-12-25T15:32:53.239Z,4.31
2022-12-25T15:35:22.988Z,4.35
2022-12-25T15:37:52.805Z,4.31
2022-12-25T15:40:22.529Z,4.23
2022-12-25T15:42:56.611Z,4.27
2022-12-25T15:45:30.623Z,4.36
2022-12-25T15:48:00.591Z,4.31
2022-12-25T15:50:32.659Z,4.32
2022-12-25T15:53:02.118Z,4.38
2022-12-25T15:55:32.008Z,4.44
2022-12-25T15:58:00.183Z,4.39
2022-12-25T16:00:28.726Z,4.35
2022-12-25T16:02:57.305Z,4.37
2022-12-25T16:05:27.181Z,4.46
2022-12-25T16:07:57.245Z,4.48
2022-12-25T16:10:29.197Z,4.47
2022-12-25T16:13:02.175Z,4.45
2022-12-25T16:15:32.425Z,4.49
2022-12-25T16:18:02.643Z,4.52
2022-12-25T16:20:34.495Z,4.53
2022-12-25T16:23:04.502Z,4.69
2022-12-25T16:25:34.563Z,4.64
2022-12-25T16:28:06.196Z,4.79
2022-12-25T16:30:41.352Z,4.76
2022-12-25T16:33:14.250Z,4.81
2022-12-25T16:35:45.327Z,4.82
2022-12-25T16:38:15.348Z,4.81
2022-12-25T16:40:56.909Z,4.98
2022-12-25T16:43:28.006Z,4.95
2022-12-25T16:45:58.167Z,4.85
2022-12-25T16:48:28.278Z,4.92
2022-12-25T16:50:58.318Z,5.07
2022-12-25T16:53:30.090Z,5.02
2022-12-25T16:56:17.813Z,5.02
2022-12-25T16:58:48.636Z,5.11
2022-12-25T17:01:23.435Z,5.12
2022-12-25T17:03:53.881Z,5.13
2022-12-25T17:07:43.356Z,5.10
2022-12-25T17:10:14.218Z,5.07
2022-12-25T17:12:45.767Z,5.14
2022-12-25T17:15:16.244Z,5.14
2022-12-25T17:17:46.320Z,5.25
2022-12-25T17:20:16.484Z,5.27
2022-12-25T17:22:49.112Z,5.36
2022-12-25T17:25:19.248Z,5.38
2022-12-25T17:27:50.876Z,5.45
2022-12-25T17:30:20.973Z,5.54
2022-12-25T17:32:51.292Z,5.42
2022-12-25T17:35:21.608Z,5.35
2022-12-25T17:37:52.017Z,5.33
2022-12-25T17:40:23.986Z,5.40
2022-12-25T17:42:52.960Z,5.39
2022-12-25T17:45:23.151Z,5.37
2022-12-25T17:47:57.530Z,5.34
2022-12-25T17:53:26.727Z,5.47
2022-12-25T17:55:59.347Z,5.44
2022-12-25T17:58:29.621Z,5.42
2022-12-25T18:01:15.838Z,5.50
2022-12-25T18:03:46.465Z,5.40
2022-12-25T18:06:23.042Z,5.56
2022-12-25T18:08:50.804Z,5.56
2022-12-25T18:11:29.300Z,5.49
2022-12-25T18:14:11.292Z,5.40
2022-12-25T18:16:45.328Z,5.38
2022-12-25T18:19:18.532Z,5.35
2022-12-25T18:21:50.024Z,5.34
2022-12-25T18:24:20.075Z,5.36
2022-12-25T18:26:50.336Z,5.61
2022-12-25T18:29:20.472Z,5.60
2022-12-25T18:31:50.852Z,5.75
2022-12-25T18:34:20.955Z,5.69
2022-12-25T18:36:50.981Z,5.57
2022-12-25T18:39:19.433Z,5.55
2022-12-25T18:42:11.035Z,5.59
2022-12-25T18:44:41.727Z,5.74
2022-12-25T18:47:10.048Z,5.86
2022-12-25T18:49:38.375Z,5.92
2022-12-25T18:52:50.129Z,5.94
2022-12-25T18:55:08.508Z,5.83
2022-12-25T18:57:40.809Z,5.76
2022-12-25T19:00:10.960Z,5.79
2022-12-25T19:02:40.962Z,5.75
2022-12-25T19:05:11.183Z,5.76
2022-12-25T19:07:41.230Z,5.83
2022-12-25T19:26:25.839Z,5.85
2022-12-25T19:28:55.974Z,5.88
2022-12-25T19:31:26.039Z,6.01
2022-12-25T19:33:56.143Z,6.03
2022-12-25T19:36:26.163Z,5.84
2022-12-25T19:38:56.286Z,6.05
2022-12-25T19:41:26.729Z,6.01
2022-12-25T19:43:56.731Z,5.91
2022-12-25T19:46:33.614Z,5.92
2022-12-25T19:49:04.501Z,5.89
2022-12-25T19:51:38.860Z,5.91
2022-12-25T19:54:14.427Z,6.18
2022-12-25T19:56:44.337Z,6.14
2022-12-25T19:59:14.753Z,6.24
2022-12-25T20:01:44.966Z,6.08
2022-12-25T20:04:18.162Z,6.20
2022-12-25T20:06:47.644Z,6.11
2022-12-25T20:09:21.576Z,6.13
2022-12-25T20:11:52.006Z,6.18
2022-12-25T20:14:21.821Z,6.10
2022-12-25T20:16:51.703Z,5.97
2022-12-25T20:19:21.620Z,6.08
2022-12-25T20:21:53.137Z,6.15
2022-12-25T20:24:21.290Z,6.22
2022-12-25T20:26:57.065Z,6.22
2022-12-25T20:29:27.981Z,6.08
2022-12-25T20:31:56.407Z,5.99
2022-12-25T20:34:24.890Z,6.01
2022-12-25T20:36:53.240Z,6.43
2022-12-25T20:39:21.800Z,6.30
2022-12-25T20:41:50.086Z,6.26
2022-12-25T20:44:19.682Z,6.24
2022-12-25T20:46:46.921Z,6.35
2022-12-25T20:49:16.026Z,6.55
2022-12-25T20:51:43.736Z,6.43
2022-12-25T20:54:14.932Z,6.59
2022-12-25T20:56:44.259Z,6.50
2022-12-25T20:59:14.642Z,6.56
2022-12-25T21:01:44.854Z,6.55
2022-12-25T21:04:16.682Z,6.41
2022-12-25T21:06:46.925Z,6.37
2022-12-25T21:09:16.807Z,6.46
2022-12-25T21:11:45.370Z,6.34
2022-12-25T21:14:13.782Z,6.29
2022-12-25T21:16:43.870Z,6.37
2022-12-25T21:19:13.669Z,6.37
2022-12-25T21:21:43.728Z,6.29
2022-12-25T21:24:13.747Z,6.24
2022-12-25T21:26:47.942Z,6.42
2022-12-25T21:29:21.320Z,6.38
2022-12-25T21:32:12.023Z,6.44
2022-12-25T21:34:41.676Z,6.47
2022-12-25T21:37:11.616Z,6.45
2022-12-25T21:39:41.611Z,6.56
2022-12-25T21:42:18.760Z,6.62
2022-12-25T21:44:49.048Z,6.54
2022-12-25T21:47:17.462Z,6.48
2022-12-25T21:50:04.484Z,6.46
2022-12-25T21:52:31.484Z,6.44
2022-12-25T21:55:01.431Z,6.42
2022-12-25T21:57:31.123Z,6.59
2022-12-25T22:00:00.877Z,6.65
2022-12-25T22:02:30.952Z,6.54
2022-12-25T22:04:59.096Z,6.53
2022-12-25T22:07:27.581Z,6.53
2022-12-25T22:09:55.945Z,6.51
2022-12-25T22:12:43.306Z,6.49
2022-12-25T22:15:12.498Z,6.66
2022-12-25T22:18:02.170Z,6.70
2022-12-25T22:20:38.168Z,7.01
2022-12-25T22:23:07.840Z,6.91
2022-12-25T22:25:35.504Z,6.84
2022-12-25T22:28:05.578Z,6.89
2022-12-25T22:30:34.125Z,6.84
2022-12-25T22:33:02.893Z,6.77
2022-12-25T22:35:30.946Z,6.89
2022-12-25T22:37:59.442Z,6.97
2022-12-25T22:40:27.809Z,6.87
2022-12-25T22:42:57.385Z,6.78
2022-12-25T22:45:24.931Z,6.77
2022-12-25T22:47:53.051Z,6.96
2022-12-25T22:50:21.732Z,7.04
2022-12-25T22:52:49.924Z,7.05
2022-12-25T22:55:19.353Z,7.12
2022-12-25T22:57:46.896Z,7.13
2022-12-25T23:00:15.655Z,7.08
2022-12-25T23:02:43.864Z,7.09
2022-12-25T23:05:12.747Z,7.07
2022-12-25T23:07:41.782Z,7.30
2022-12-25T23:10:12.026Z,7.22
2022-12-25T23:12:59.300Z,7.30
2022-12-25T23:15:28.134Z,7.27
2022-12-25T23:18:14.401Z,7.23
2022-12-25T23:21:02.696Z,7.28
2022-12-25T23:23:51.028Z,7.47
2022-12-25T23:26:22.040Z,7.27
2022-12-25T23:29:10.576Z,7.27
2022-12-25T23:31:43.294Z,7.26
2022-12-25T23:34:13.437Z,7.23
2022-12-25T23:36:43.462Z,7.17
2022-12-25T23:39:13.950Z,7.36
2022-12-25T23:41:44.469Z,7.25
2022-12-25T23:44:14.941Z,7.34
2022-12-25T23:46:52.634Z,7.26
2022-12-25T23:49:26.204Z,7.47
2022-12-25T23:51:57.371Z,7.33
2022-12-25T23:54:32.394Z,7.34
2022-12-25T23:57:02.502Z,7.76
2022-12-25T23:59:32.077Z,7.66
